Warning: Javascript must be enabled to use all the features on this page!


Page Loading - Please Wait...

Click to hideNews Bulletins

Peak Streamflow for the Nation

USGS 09415000 VIRGIN RV AT LITTLEFIELD, AZ

Mohave County, Arizona
Hydrologic Unit Code 15010010
Latitude  36°53'30", Longitude 113°55'25" NAD27
Drainage area 5,090  square miles
Gage datum 1,763.68 feet above NGVD29
Output formats
Table
Graph
Tab-separated file
peakfq (watstore) format
Reselect output format
Water
Year
Date Gage
Height
(feet)
Stream-
flow
(cfs)
1930 1930-08-09 8.65 6,500
1931 1930-11-18 6.50 3,000
1932 1932-08-27 11.00 18,0002
1933 1933-05-01   1,5002
1934 1933-12-14 4.206 1,220
1935 1935-08-16 5.00 1,900
1936 1936-07-10 7.00 2,7101
1937 1937-02-07 5.00 1,4401
1938 1938-03-03 10.30 22,000
1939 1939-09-12 7.50 13,000
1940 1940-09-18 7.406 11,000
1941 1941-03-02 5.00 6,000
1942 1941-10-13 6.30 3,740
1943 1943-03-11 5.626 2,660
1944 1944-05-09 4.99 1,900
1945 1945-02-03 6.57 4,170
1946 1946-08-12 6.95 5,010
1947 1946-10-29 9.35 9,400
1948 1948-09-16 5.19 1,090
1949 1949-09-10 6.35 2,290
1950 1950-07-18 7.34 3,450
1951 1951-08-04 10.53 12,000
1952 1951-12-30 8.70 7,170
1953 1953-08-27 8.66 5,490
1954 1954-08-04 9.18 6,020
1955 1955-08-25 13.60 19,800
1956 1956-01-27 6.89 2,460
1957 1957-08-21 8.00 3,950
1958 1958-03-17 9.87 7,180
1959 1959-08-19 7.76 3,490
1960 1959-11-03 6.28 2,320
1961 1961-09-18 10.84 10,900
1962 1962-02-12 8.12 5,380
1963 1963-09-14 7.70 4,720
1964 1964-08-14 8.66 6,300
1965 1965-09-06 7.60 4,040
1966 1965-12-30 8.58 5,490
1967 1966-12-06 15.66 35,200
1968 1968-08-08 6.68 2,180
1969 1969-01-26 13.27 21,400
1970 1970-07-22 10.02 8,960
1971 1971-08-15 11.026 6,140
1972 1971-12-25 11.80 8,180
1973 1973-05-11 8.90 3,740
1974 1974-09-05 10.26 5,840
1975 1975-07-30 10.30 5,910
1976 1976-02-09 9.87 5,180
1977 1976-10-02 10.97 7,140
1978 1978-03-02 13.60 22,000
1979 1979-03-28 9.41 4,440
1980 1980-02-20 11.696 10,400
1981 1981-07-16 6.70 2,260
1982 1982-09-27 8.69 4,840
1983 1982-12-01 9.35 6,200
1984 1984-07-23 8.72 4,940
1985 1985-04-11 6.54 1,2605
1986 1985-11-30 7.095 1,9702,5
1987 1987-07-21 9.33 5,6905
1988 1988-08-03 10.355 8,2802,5
1989 1989-01-01 22.37 61,0003,5
1990 1990-09-24 7.75 2,8105
1991 1991-09-08 6.18 1,1505
1992 1992-08-23 8.28 3,7305
1993 1993-02-20 13.31 12,3005
1994 1993-10-07 6.99 1,9805
1995 1995-03-12 14.26 20,5005
1996 1995-11-02 9.29 5,4305
1997 1997-01-03 8.83 5,4105
1998 1998-09-12 10.05 7,0805
1999 1999-08-31 7.50 2,6705
2000 2000-02-24 5.72 8775
2001 2001-07-07   1,5002,5
2002 2002-09-07 6.64 1,7005
2003 2003-07-31 7.01 2,0805
2004 2004-08-13 8.26 2,4105
2005 2005-01-11 15.93 37,0005
2006 2006-03-29 7.34 5,9405
2007 2007-08-02 9.546 2,5005
2008 2008-01-06 10.80 4,4105
2009 2009-01-25 7.41 5245
2010 2010-04-22 10.24 3,4105
2011 2010-12-21 19.82 31,0005
2012 2012-09-11 9.336 4,4005
2013 2013-08-27 9.226 2,3002,5
2014 2014-09-08 13.87 7,8405
2015 2015-07-18 7.98 1,7205
2016 2016-09-22 9.46 3,1605
2017 2017-02-12 9.56 3,2605
2018 2018-08-22 11.52 4,2005
2019 2019-03-07   6,1402,5
2020 2020-03-13 8.64R 2,9702,5
?
  Peak Gage-Height Qualification Codes.
?
  Peak Streamflow Qualification Codes.